Terminal Aerodrome Forecast
Issued by NWS Charleston, WV

Current Version | Previous Version | Graphics & Text | Print | Product List | Glossary On
Versions: 1 2 3 4 5 6 7 8 9 10 11 12 13 14 15 16 17 18 19 20 21 22 23 24
159
FTUS41 KRLX 230242 AAA
TAFHTS
TAF AMD
KHTS 230242Z 2303/2324 34003KT P6SM SCT070
     FM230400 02002KT P6SM SCT250
     FM230900 00000KT 4SM BR SCT250
     FM231200 00000KT 6SM BR SCT250
     FM231300 34003KT P6SM SCT250=

USA.gov is the U.S. government's official web portal to all federal, state and local government web resources and services.